createdAt,value
2024-01-11T00:00:45.247Z,1.50
2024-01-11T00:04:54.142Z,1.50
2024-01-11T00:09:05.142Z,1.50
2024-01-11T00:13:13.884Z,1.40
2024-01-11T00:17:22.845Z,1.40
2024-01-11T00:21:31.701Z,1.40
2024-01-11T00:25:42.016Z,1.30
2024-01-11T00:29:50.746Z,1.30
2024-01-11T00:33:59.591Z,1.20
2024-01-11T00:38:08.399Z,1.00
2024-01-11T00:42:18.719Z,0.70
2024-01-11T00:46:27.457Z,0.60
2024-01-11T00:50:36.377Z,0.60
2024-01-11T00:54:45.241Z,0.60
2024-01-11T00:58:55.807Z,0.50
2024-01-11T01:03:04.774Z,0.30
2024-01-11T01:07:13.507Z,0.30
2024-01-11T01:11:22.397Z,0.40
2024-01-11T01:15:32.707Z,0.40
2024-01-11T01:19:41.605Z,0.30
2024-01-11T01:23:50.435Z,0.10
2024-01-11T01:28:00.554Z,-0.10
2024-01-11T01:32:11.006Z,0.00
2024-01-11T01:36:19.932Z,0.00
2024-01-11T01:40:28.691Z,-0.10
2024-01-11T01:44:37.695Z,-0.20
2024-01-11T01:48:48.388Z,-0.30
2024-01-11T01:52:58.266Z,-0.20
2024-01-11T01:57:07.725Z,-0.10
2024-01-11T02:01:17.574Z,-0.10
2024-01-11T02:05:28.237Z,-0.20
2024-01-11T02:09:38.040Z,-0.30
2024-01-11T02:13:47.918Z,-0.40
2024-01-11T02:17:56.833Z,-0.50
2024-01-11T02:22:15.291Z,-0.40
2024-01-11T02:26:25.595Z,-0.30
2024-01-11T02:30:34.428Z,-0.30
2024-01-11T02:34:43.731Z,-0.50
2024-01-11T02:38:54.306Z,-0.60
2024-01-11T02:43:12.181Z,-0.60
2024-01-11T02:47:21.043Z,-0.50
2024-01-11T02:51:29.873Z,-0.50
2024-01-11T02:55:38.689Z,-0.70
2024-01-11T02:59:48.926Z,-0.80
2024-01-11T03:03:58.889Z,-0.90
2024-01-11T03:08:08.110Z,-0.80
2024-01-11T03:12:16.929Z,-0.80
2024-01-11T03:16:27.195Z,-0.90
2024-01-11T03:20:36.039Z,-1.00
2024-01-11T03:24:44.793Z,-1.00
2024-01-11T03:28:53.764Z,-0.80
2024-01-11T03:33:04.245Z,-0.90
2024-01-11T03:37:13.183Z,-1.10
2024-01-11T03:41:22.014Z,-1.00
2024-01-11T03:45:30.858Z,-1.00
2024-01-11T03:49:41.319Z,-0.90
2024-01-11T03:53:50.618Z,-1.00
2024-01-11T03:57:59.561Z,-1.00
2024-01-11T04:02:08.539Z,-1.00
2024-01-11T04:06:23.889Z,-0.90
2024-01-11T04:10:32.802Z,-0.90
2024-01-11T04:14:42.462Z,-0.90
2024-01-11T04:18:51.416Z,-1.00
2024-01-11T04:23:01.827Z,-1.00
2024-01-11T04:27:10.647Z,-1.00
2024-01-11T04:31:19.605Z,-1.00
2024-01-11T04:35:28.553Z,-1.10
2024-01-11T04:39:38.883Z,-1.20
2024-01-11T04:43:48.009Z,-1.20
2024-01-11T04:47:57.112Z,-1.20
2024-01-11T04:52:06.523Z,-1.20
2024-01-11T04:56:18.216Z,-1.20
2024-01-11T05:00:27.102Z,-1.20
2024-01-11T05:04:35.890Z,-1.20
2024-01-11T05:08:44.668Z,-1.20
2024-01-11T05:12:54.929Z,-1.30
2024-01-11T05:17:03.660Z,-1.20
2024-01-11T05:21:12.502Z,-1.20
2024-01-11T05:25:21.310Z,-1.10
2024-01-11T05:29:31.596Z,-1.20
2024-01-11T05:33:40.689Z,-1.30
2024-01-11T05:37:49.653Z,-1.30
2024-01-11T05:41:58.483Z,-1.20
2024-01-11T05:46:09.332Z,-1.20
2024-01-11T05:50:18.451Z,-1.20
2024-01-11T05:54:29.506Z,-1.20
2024-01-11T05:58:39.309Z,-1.10
2024-01-11T06:02:49.696Z,-1.00
2024-01-11T06:06:58.487Z,-0.90
2024-01-11T06:11:07.710Z,-0.90
2024-01-11T06:15:16.553Z,-0.80
2024-01-11T06:19:27.381Z,-0.70
2024-01-11T06:23:36.339Z,-0.80
2024-01-11T06:27:46.181Z,-0.70
2024-01-11T06:31:55.114Z,-0.60
2024-01-11T06:36:05.936Z,-0.60
2024-01-11T06:40:14.731Z,-0.60
2024-01-11T06:44:23.582Z,-0.60
2024-01-11T06:48:32.524Z,-0.60
2024-01-11T06:52:42.983Z,-0.50
2024-01-11T06:56:51.755Z,-0.40
2024-01-11T07:01:00.620Z,-0.40
2024-01-11T07:05:10.367Z,-0.30
2024-01-11T07:09:20.643Z,-0.30
2024-01-11T07:13:29.475Z,-0.20
2024-01-11T07:17:38.375Z,0.00
2024-01-11T07:21:47.265Z,0.20
2024-01-11T07:25:57.642Z,0.20
2024-01-11T07:30:08.135Z,0.30
2024-01-11T07:34:17.126Z,0.50
2024-01-11T07:38:26.063Z,0.60
2024-01-11T07:42:36.340Z,0.70
2024-01-11T07:46:52.533Z,0.70
2024-01-11T07:51:03.525Z,0.80
2024-01-11T07:55:14.279Z,0.80
2024-01-11T07:59:24.697Z,0.80
2024-01-11T08:03:34.482Z,0.80
2024-01-11T08:07:44.759Z,0.90
2024-01-11T08:11:55.823Z,1.00
2024-01-11T08:16:11.062Z,1.10
2024-01-11T08:20:20.900Z,1.20
2024-01-11T08:24:29.964Z,1.30
2024-01-11T08:28:38.732Z,1.40
2024-01-11T08:32:49.186Z,1.50
2024-01-11T08:36:58.166Z,1.50
2024-01-11T08:41:07.791Z,1.60
2024-01-11T08:45:19.478Z,1.70
2024-01-11T08:49:29.917Z,1.80
2024-01-11T08:53:38.768Z,1.80
2024-01-11T08:57:47.665Z,1.80
2024-01-11T09:02:02.736Z,1.90
2024-01-11T09:06:21.100Z,2.00
2024-01-11T09:10:29.944Z,2.10
2024-01-11T09:14:38.954Z,2.20
2024-01-11T09:18:48.235Z,2.20
2024-01-11T09:22:58.611Z,2.30
2024-01-11T09:27:07.999Z,2.40
2024-01-11T09:31:16.957Z,2.40
2024-01-11T09:35:25.932Z,2.40
2024-01-11T09:39:36.245Z,2.50
2024-01-11T09:43:45.106Z,2.60
2024-01-11T09:47:54.486Z,2.70
2024-01-11T09:52:04.654Z,2.80
2024-01-11T09:56:14.970Z,2.90
2024-01-11T10:00:25.946Z,3.00
2024-01-11T10:04:34.819Z,3.10
2024-01-11T10:08:43.862Z,3.20
2024-01-11T10:12:54.096Z,3.30
2024-01-11T10:17:03.127Z,3.50
2024-01-11T10:21:12.297Z,3.70
2024-01-11T10:25:21.233Z,4.00
2024-01-11T10:29:33.473Z,4.10
2024-01-11T10:33:42.466Z,4.20
2024-01-11T10:37:56.019Z,4.30
2024-01-11T10:42:09.135Z,4.40
2024-01-11T10:46:23.585Z,4.60
2024-01-11T10:50:37.071Z,4.70
2024-01-11T10:54:46.111Z,4.80
2024-01-11T10:58:57.017Z,4.90
2024-01-11T11:03:09.560Z,5.00
2024-01-11T11:07:18.875Z,5.20
2024-01-11T11:11:28.356Z,5.30
2024-01-11T11:15:39.348Z,5.50
2024-01-11T11:19:49.845Z,5.50
2024-01-11T11:23:59.184Z,5.60
2024-01-11T11:28:08.517Z,5.70
2024-01-11T11:32:18.831Z,5.80
2024-01-11T11:36:33.347Z,5.90
2024-01-11T11:40:45.225Z,6.00
2024-01-11T11:44:59.136Z,6.10
2024-01-11T11:49:08.344Z,6.20
2024-01-11T11:53:19.608Z,6.30
2024-01-11T11:57:30.201Z,6.20
2024-01-11T12:01:39.955Z,6.00
2024-01-11T12:05:49.094Z,5.90
2024-01-11T12:09:59.587Z,6.00
2024-01-11T12:14:08.451Z,6.10
2024-01-11T12:18:17.549Z,6.40
2024-01-11T12:22:26.839Z,6.60
2024-01-11T12:26:37.745Z,6.70
2024-01-11T12:30:48.158Z,6.60
2024-01-11T12:34:57.488Z,6.60
2024-01-11T12:39:07.727Z,6.60
2024-01-11T12:43:18.623Z,6.70
2024-01-11T12:47:27.558Z,6.70
2024-01-11T12:51:39.113Z,6.70
2024-01-11T12:55:54.978Z,6.80
2024-01-11T13:00:15.152Z,6.80
2024-01-11T13:04:24.045Z,7.00
2024-01-11T13:08:33.070Z,7.10
2024-01-11T13:12:43.528Z,7.10
2024-01-11T13:16:54.881Z,7.10
2024-01-11T13:21:04.366Z,7.40
2024-01-11T13:25:13.441Z,7.50
2024-01-11T13:29:22.347Z,7.60
2024-01-11T13:33:32.667Z,7.80
2024-01-11T13:37:42.108Z,7.90
2024-01-11T13:41:52.007Z,8.00
2024-01-11T13:46:00.862Z,8.10
2024-01-11T13:50:12.268Z,8.20
2024-01-11T13:54:22.683Z,8.30
2024-01-11T13:58:31.853Z,8.30
2024-01-11T14:02:41.965Z,8.20
2024-01-11T14:06:54.297Z,8.30
2024-01-11T14:11:03.316Z,8.30
2024-01-11T14:15:14.613Z,8.40
2024-01-11T14:19:24.018Z,8.50
2024-01-11T14:23:34.425Z,8.50
2024-01-11T14:27:43.606Z,8.60
2024-01-11T14:31:53.445Z,8.60
2024-01-11T14:36:02.402Z,8.60
2024-01-11T14:40:13.920Z,8.60
2024-01-11T14:44:22.981Z,8.60
2024-01-11T14:48:34.062Z,8.60
2024-01-11T14:52:44.077Z,8.60
2024-01-11T14:56:54.619Z,8.60
2024-01-11T15:01:05.206Z,8.60
2024-01-11T15:05:14.272Z,8.40
2024-01-11T15:09:23.138Z,8.40
2024-01-11T15:13:35.105Z,8.30
2024-01-11T15:17:44.104Z,8.30
2024-01-11T15:21:54.037Z,8.20
2024-01-11T15:26:03.476Z,8.20
2024-01-11T15:30:15.265Z,8.20
2024-01-11T15:34:24.578Z,8.10
2024-01-11T15:38:33.583Z,8.10
2024-01-11T15:42:43.929Z,7.90
2024-01-11T15:46:54.243Z,7.80
2024-01-11T15:51:05.349Z,7.70
2024-01-11T15:55:15.335Z,7.70
2024-01-11T15:59:26.306Z,7.70
2024-01-11T16:03:37.996Z,7.60
2024-01-11T16:07:46.889Z,7.50
2024-01-11T16:12:02.232Z,7.30
2024-01-11T16:16:13.974Z,7.20
2024-01-11T16:20:24.477Z,6.90
2024-01-11T16:24:33.920Z,6.90
2024-01-11T16:28:43.060Z,6.90
2024-01-11T16:32:52.220Z,6.70
2024-01-11T16:37:02.776Z,6.60
2024-01-11T16:41:12.491Z,6.50
2024-01-11T16:45:21.442Z,6.30
2024-01-11T16:49:30.308Z,6.20
2024-01-11T16:53:44.091Z,6.20
2024-01-11T16:57:52.992Z,6.20
2024-01-11T17:02:01.816Z,6.10
2024-01-11T17:06:12.146Z,5.90
2024-01-11T17:10:22.523Z,6.00
2024-01-11T17:14:31.551Z,5.90
2024-01-11T17:18:40.544Z,5.90
2024-01-11T17:22:51.414Z,5.90
2024-01-11T17:27:06.881Z,5.80
2024-01-11T17:31:15.969Z,5.80
2024-01-11T17:35:25.036Z,5.80
2024-01-11T17:39:33.975Z,5.80
2024-01-11T17:43:49.221Z,5.80
2024-01-11T17:47:58.639Z,5.80
2024-01-11T17:52:08.378Z,5.80
2024-01-11T17:56:18.767Z,5.80
2024-01-11T18:00:31.372Z,5.80
2024-01-11T18:04:40.311Z,5.80
2024-01-11T18:08:50.075Z,5.90
2024-01-11T18:12:59.026Z,5.80
2024-01-11T18:17:09.856Z,5.80
2024-01-11T18:21:18.952Z,5.90
2024-01-11T18:25:27.819Z,5.90
2024-01-11T18:29:36.870Z,5.90
2024-01-11T18:33:48.374Z,5.90
2024-01-11T18:37:57.318Z,5.80
2024-01-11T18:42:07.917Z,5.90
2024-01-11T18:46:16.844Z,5.90
2024-01-11T18:50:27.150Z,5.90
2024-01-11T18:54:36.126Z,5.90
2024-01-11T18:58:44.994Z,5.90
2024-01-11T19:02:54.112Z,5.80
2024-01-11T19:07:04.938Z,5.90
2024-01-11T19:11:14.715Z,5.90
2024-01-11T19:15:24.225Z,5.90
2024-01-11T19:19:33.280Z,5.90
2024-01-11T19:23:43.852Z,5.90
2024-01-11T19:27:53.588Z,6.00
2024-01-11T19:32:02.924Z,6.00
2024-01-11T19:36:12.430Z,6.00
2024-01-11T19:40:22.759Z,6.00
2024-01-11T19:44:31.658Z,5.90
2024-01-11T19:48:40.602Z,5.90
2024-01-11T19:52:51.564Z,5.90
2024-01-11T19:57:02.568Z,6.00
2024-01-11T20:01:12.076Z,5.90
2024-01-11T20:05:20.962Z,5.90
2024-01-11T20:09:29.785Z,5.80
2024-01-11T20:13:40.643Z,5.80
2024-01-11T20:17:50.600Z,5.80
2024-01-11T20:22:00.393Z,5.70
2024-01-11T20:26:09.546Z,5.60
2024-01-11T20:30:20.060Z,5.60
2024-01-11T20:34:28.997Z,5.60
2024-01-11T20:38:38.173Z,5.60
2024-01-11T20:42:47.495Z,5.60
2024-01-11T20:46:58.813Z,5.50
2024-01-11T20:51:09.431Z,5.40
2024-01-11T20:55:18.891Z,5.40
2024-01-11T20:59:27.754Z,5.40
2024-01-11T21:03:40.683Z,5.40
2024-01-11T21:07:49.608Z,5.40
2024-01-11T21:11:59.467Z,5.30
2024-01-11T21:16:08.391Z,5.30
2024-01-11T21:20:18.878Z,5.20
2024-01-11T21:24:28.656Z,5.20
2024-01-11T21:28:37.566Z,5.20
2024-01-11T21:32:46.490Z,5.00
2024-01-11T21:36:56.932Z,4.90
2024-01-11T21:41:06.035Z,4.90
2024-01-11T21:45:15.086Z,4.90
2024-01-11T21:49:23.996Z,4.90
2024-01-11T21:53:36.317Z,4.70
2024-01-11T21:57:45.143Z,4.60
2024-01-11T22:01:54.119Z,4.50
2024-01-11T22:06:03.013Z,4.50
2024-01-11T22:10:13.548Z,4.50
2024-01-11T22:14:22.474Z,4.50
2024-01-11T22:18:31.600Z,4.40
2024-01-11T22:22:40.409Z,4.40
2024-01-11T22:26:50.753Z,4.50
2024-01-11T22:30:59.640Z,4.40
2024-01-11T22:35:09.380Z,4.40
2024-01-11T22:39:18.297Z,4.30
2024-01-11T22:43:29.008Z,4.20
2024-01-11T22:47:37.994Z,4.20
2024-01-11T22:51:46.962Z,4.30
2024-01-11T22:55:55.827Z,4.30
2024-01-11T23:00:22.267Z,4.30
2024-01-11T23:04:32.785Z,4.30
2024-01-11T23:08:41.723Z,4.30
2024-01-11T23:12:51.289Z,4.30
2024-01-11T23:17:01.646Z,4.30
2024-01-11T23:21:10.440Z,4.30
2024-01-11T23:25:19.275Z,4.20
2024-01-11T23:29:28.561Z,4.20
2024-01-11T23:33:39.338Z,4.30
2024-01-11T23:37:48.414Z,4.30
2024-01-11T23:41:57.346Z,4.40
2024-01-11T23:46:06.619Z,4.40
2024-01-11T23:50:18.711Z,4.30
2024-01-11T23:54:28.202Z,4.40
2024-01-11T23:58:37.030Z,4.40
